To NAV CANADA Home Page Login to a new session Search on AWWS site Feedback and Comments Disclaimer Vers la page française équivalente Tips FAQ What's new on the site To the Forecasts and Observations / NOTAM section To "File a Flight Plan" website Publications and other links Update of the User's profile FIC Telephone Numbers My Weather Data Folder Route Weather Data Regional Weather Data Local Weather Data To the Forecasts and Observations / NOTAM section
Request Generated 07/30/2016 at 03:26:07 UTC . Weather information available at that time is displayed.

METAR/TAF

If you find any discrepancies between the coded METAR/TAF and the plain language METAR/TAF please use the coded METAR/TAF. LWIS bulletins are not decoded in plain language.

CALGARY/SPRINGBANK/AB    (show WxCam)

METAR CYBW 300300Z AUTO 15008KT 9SM CLR 21/12 A2991 RMK SLP118 DENSITY ALT 5500FT=
METAR
LOCATION
CYBW - CALGARY/SPRINGBANK/AB
DATE - TIME
30 JULY 2016 - 0300 UTC
WIND
150 TRUE @ 8  KNOTS
VISIBILITY
9 STAT.  MILES
RUNWAY VISUAL RANGE
WEATHER
CLOUDINESS
CLEAR SKY
TEMP / DEWPOINT
21 C / 12 C
ALTIMETER
29.91 IN HG
RECENT WEATHER
WIND SHEAR

METAR CYBW 300200Z AUTO 16011G17KT 9SM CLR 23/11 A2992 RMK SLP126 DENSITY ALT 5700FT=
METAR
LOCATION
CYBW - CALGARY/SPRINGBANK/AB
DATE - TIME
30 JULY 2016 - 0200 UTC
WIND
160 TRUE @ 11  KNOTS
GUSTS
17 KNOTS
VISIBILITY
9 STAT.  MILES
RUNWAY VISUAL RANGE
WEATHER
CLOUDINESS
CLEAR SKY
TEMP / DEWPOINT
23 C / 11 C
ALTIMETER
29.92 IN HG
RECENT WEATHER
WIND SHEAR

METAR CYBW 300100Z AUTO 15014G21KT 9SM CLR 25/10 A2994 RMK SLP132 DENSITY ALT 5900FT=
METAR
LOCATION
CYBW - CALGARY/SPRINGBANK/AB
DATE - TIME
30 JULY 2016 - 0100 UTC
WIND
150 TRUE @ 14  KNOTS
GUSTS
21 KNOTS
VISIBILITY
9 STAT.  MILES
RUNWAY VISUAL RANGE
WEATHER
CLOUDINESS
CLEAR SKY
TEMP / DEWPOINT
25 C / 10 C
ALTIMETER
29.94 IN HG
RECENT WEATHER
WIND SHEAR

TAF CYBW 292338Z 3000/3004 15015KT P6SM FEW060 RMK FCST BASED ON AUTO OBS. NXT FCST WILL BE ISSUED AT 301145Z=
TAF
LOCATION

CYBW - CALGARY/SPRINGBANK/AB
VALIDITY [UTC]
29 JUL - 2338 to
30 JUL - 0400
 
TIMES
[UTC]
WIND
[DEGREES TRUE]
VISIBILITY
[STAT. MILES]
WEATHER
CLOUDINESS
[FEET AGL]
 
30 JUL - 0000 to
30 JUL - 0400
150 @ 15 KNOTS
6+
NIL
6000 FEW
REMARKS
THE FORECAST IS BASED ON AUTOMATIC OBSERVATIONS - THE NEXT FORECAST WILL BE ISSUED AT 1145 UTC ON DAY 30


Your time UTC time
Weather data provided by Environment Canada and NAV CANADA